Terminal Aerodrome Forecast
Issued by NWS Louisville, KY

Home | Current Version | Previous Version | Text Only | Print | Product List | Glossary On
Versions: 1 2 3 4 5 6 7 8 9 10 11 12
144
FTUS43 KLMK 252320
TAFBWG
TAF
KBWG 252320Z 2600/2624 29005KT P6SM FEW250
     FM260600 VRB03KT P6SM BKN070 BKN250
     FM261300 30004KT P6SM BKN250=

USA.gov is the U.S. government's official web portal to all federal, state and local government web resources and services.